sensor_id;sensor_type;location;lat;lon;timestamp;temperature;humidity
33994;DHT22;20673;48.980;8.138;2022-09-16T00:01:42;13.80;99.90
33994;DHT22;20673;48.980;8.138;2022-09-16T00:04:09;13.80;99.90
33994;DHT22;20673;48.980;8.138;2022-09-16T00:06:35;13.80;99.90
33994;DHT22;20673;48.980;8.138;2022-09-16T00:09:01;13.80;99.90
33994;DHT22;20673;48.980;8.138;2022-09-16T00:11:28;13.80;99.90
33994;DHT22;20673;48.980;8.138;2022-09-16T00:13:58;13.80;99.90
33994;DHT22;20673;48.980;8.138;2022-09-16T00:16:26;13.80;99.90
33994;DHT22;20673;48.980;8.138;2022-09-16T00:18:55;13.80;99.90
33994;DHT22;20673;48.980;8.138;2022-09-16T00:21:25;13.80;99.90
33994;DHT22;20673;48.980;8.138;2022-09-16T00:23:54;13.70;99.90
33994;DHT22;20673;48.980;8.138;2022-09-16T00:26:21;13.60;99.90
33994;DHT22;20673;48.980;8.138;2022-09-16T00:28:48;13.60;99.90
33994;DHT22;20673;48.980;8.138;2022-09-16T00:31:16;13.50;99.90
33994;DHT22;20673;48.980;8.138;2022-09-16T00:33:42;13.40;99.90
33994;DHT22;20673;48.980;8.138;2022-09-16T00:36:14;13.40;99.90
33994;DHT22;20673;48.980;8.138;2022-09-16T00:38:43;13.30;99.90
33994;DHT22;20673;48.980;8.138;2022-09-16T00:41:18;13.30;99.90
33994;DHT22;20673;48.980;8.138;2022-09-16T00:43:53;13.20;99.90
33994;DHT22;20673;48.980;8.138;2022-09-16T00:46:28;13.30;99.90
33994;DHT22;20673;48.980;8.138;2022-09-16T00:48:57;13.30;99.90
33994;DHT22;20673;48.980;8.138;2022-09-16T00:51:29;13.20;99.90
33994;DHT22;20673;48.980;8.138;2022-09-16T00:53:58;13.20;99.90
33994;DHT22;20673;48.980;8.138;2022-09-16T00:56:27;13.30;99.90
33994;DHT22;20673;48.980;8.138;2022-09-16T00:59:13;13.30;99.90
33994;DHT22;20673;48.980;8.138;2022-09-16T01:01:41;13.30;99.90
33994;DHT22;20673;48.980;8.138;2022-09-16T01:04:15;13.50;99.90
33994;DHT22;20673;48.980;8.138;2022-09-16T01:06:43;13.50;99.90
33994;DHT22;20673;48.980;8.138;2022-09-16T01:09:10;13.40;99.90
33994;DHT22;20673;48.980;8.138;2022-09-16T01:11:37;13.30;99.90
33994;DHT22;20673;48.980;8.138;2022-09-16T01:14:04;13.20;99.90
33994;DHT22;20673;48.980;8.138;2022-09-16T01:16:59;13.30;99.90
33994;DHT22;20673;48.980;8.138;2022-09-16T01:31:38;13.20;99.90
33994;DHT22;20673;48.980;8.138;2022-09-16T01:39:34;13.10;99.90
33994;DHT22;20673;48.980;8.138;2022-09-16T01:44:59;13.10;99.90
33994;DHT22;20673;48.980;8.138;2022-09-16T01:48:07;13.10;99.90
33994;DHT22;20673;48.980;8.138;2022-09-16T01:50:45;13.10;99.90
33994;DHT22;20673;48.980;8.138;2022-09-16T01:53:23;13.20;99.90
33994;DHT22;20673;48.980;8.138;2022-09-16T01:56:32;13.30;99.90
33994;DHT22;20673;48.980;8.138;2022-09-16T01:59:21;13.30;99.90
33994;DHT22;20673;48.980;8.138;2022-09-16T02:01:54;13.20;99.90
33994;DHT22;20673;48.980;8.138;2022-09-16T02:04:28;13.10;99.90
33994;DHT22;20673;48.980;8.138;2022-09-16T02:06:57;13.10;99.90
33994;DHT22;20673;48.980;8.138;2022-09-16T02:09:29;13.10;99.90
33994;DHT22;20673;48.980;8.138;2022-09-16T02:12:00;13.10;99.90
33994;DHT22;20673;48.980;8.138;2022-09-16T02:14:36;13.10;99.90
33994;DHT22;20673;48.980;8.138;2022-09-16T02:17:07;13.10;99.90
33994;DHT22;20673;48.980;8.138;2022-09-16T02:19:45;13.20;99.90
33994;DHT22;20673;48.980;8.138;2022-09-16T02:22:19;13.10;99.90
33994;DHT22;20673;48.980;8.138;2022-09-16T02:24:47;13.10;99.90
33994;DHT22;20673;48.980;8.138;2022-09-16T02:27:18;13.10;99.90
33994;DHT22;20673;48.980;8.138;2022-09-16T02:29:53;13.10;99.90
33994;DHT22;20673;48.980;8.138;2022-09-16T02:32:23;13.10;99.90
33994;DHT22;20673;48.980;8.138;2022-09-16T02:34:53;13.20;99.90
33994;DHT22;20673;48.980;8.138;2022-09-16T02:40:10;13.20;99.90
33994;DHT22;20673;48.980;8.138;2022-09-16T02:42:45;13.20;99.90
33994;DHT22;20673;48.980;8.138;2022-09-16T02:45:11;13.20;99.90
33994;DHT22;20673;48.980;8.138;2022-09-16T02:48:02;13.20;99.90
33994;DHT22;20673;48.980;8.138;2022-09-16T02:50:40;13.30;99.90
33994;DHT22;20673;48.980;8.138;2022-09-16T02:53:49;13.30;99.90
33994;DHT22;20673;48.980;8.138;2022-09-16T02:56:31;13.30;99.90
33994;DHT22;20673;48.980;8.138;2022-09-16T02:59:00;13.20;99.90
33994;DHT22;20673;48.980;8.138;2022-09-16T03:01:33;13.20;99.90
33994;DHT22;20673;48.980;8.138;2022-09-16T03:04:01;13.20;99.90
33994;DHT22;20673;48.980;8.138;2022-09-16T03:06:28;13.20;99.90
33994;DHT22;20673;48.980;8.138;2022-09-16T03:08:58;13.20;99.90
33994;DHT22;20673;48.980;8.138;2022-09-16T03:11:47;13.20;99.90
33994;DHT22;20673;48.980;8.138;2022-09-16T03:29:30;13.30;99.90
33994;DHT22;20673;48.980;8.138;2022-09-16T03:35:05;13.30;99.90
33994;DHT22;20673;48.980;8.138;2022-09-16T03:37:45;13.30;99.90
33994;DHT22;20673;48.980;8.138;2022-09-16T03:40:14;13.40;99.90
33994;DHT22;20673;48.980;8.138;2022-09-16T03:42:43;13.40;99.90
33994;DHT22;20673;48.980;8.138;2022-09-16T03:45:21;13.40;99.90
33994;DHT22;20673;48.980;8.138;2022-09-16T03:47:48;13.40;99.90
33994;DHT22;20673;48.980;8.138;2022-09-16T03:50:17;13.50;99.90
33994;DHT22;20673;48.980;8.138;2022-09-16T03:52:44;13.50;99.90
33994;DHT22;20673;48.980;8.138;2022-09-16T03:55:10;13.40;99.90
33994;DHT22;20673;48.980;8.138;2022-09-16T03:57:36;13.40;99.90
33994;DHT22;20673;48.980;8.138;2022-09-16T04:00:04;13.40;99.90
33994;DHT22;20673;48.980;8.138;2022-09-16T04:02:32;13.40;99.90
33994;DHT22;20673;48.980;8.138;2022-09-16T04:04:59;13.50;99.90
33994;DHT22;20673;48.980;8.138;2022-09-16T04:07:26;13.40;99.90
33994;DHT22;20673;48.980;8.138;2022-09-16T04:09:52;13.40;99.90
33994;DHT22;20673;48.980;8.138;2022-09-16T04:12:18;13.30;99.90
33994;DHT22;20673;48.980;8.138;2022-09-16T04:14:44;13.20;99.90
33994;DHT22;20673;48.980;8.138;2022-09-16T04:17:10;13.20;99.90
33994;DHT22;20673;48.980;8.138;2022-09-16T04:19:36;13.20;99.90
33994;DHT22;20673;48.980;8.138;2022-09-16T04:22:02;13.20;99.90
33994;DHT22;20673;48.980;8.138;2022-09-16T04:24:29;13.20;99.90
33994;DHT22;20673;48.980;8.138;2022-09-16T04:26:55;13.20;99.90
33994;DHT22;20673;48.980;8.138;2022-09-16T04:29:21;13.20;99.90
33994;DHT22;20673;48.980;8.138;2022-09-16T04:31:47;13.20;99.90
33994;DHT22;20673;48.980;8.138;2022-09-16T04:34:13;13.20;99.90
33994;DHT22;20673;48.980;8.138;2022-09-16T04:36:40;13.20;99.90
33994;DHT22;20673;48.980;8.138;2022-09-16T04:39:06;13.20;99.90
33994;DHT22;20673;48.980;8.138;2022-09-16T04:41:32;13.30;99.90
33994;DHT22;20673;48.980;8.138;2022-09-16T04:43:59;13.40;99.90
33994;DHT22;20673;48.980;8.138;2022-09-16T04:46:28;13.30;99.90
33994;DHT22;20673;48.980;8.138;2022-09-16T04:48:55;13.20;99.90
33994;DHT22;20673;48.980;8.138;2022-09-16T04:51:22;13.20;99.90
33994;DHT22;20673;48.980;8.138;2022-09-16T04:53:51;13.10;99.90
33994;DHT22;20673;48.980;8.138;2022-09-16T04:56:20;13.20;99.90
33994;DHT22;20673;48.980;8.138;2022-09-16T04:58:51;13.10;99.90
33994;DHT22;20673;48.980;8.138;2022-09-16T05:01:23;13.20;99.90
33994;DHT22;20673;48.980;8.138;2022-09-16T05:03:53;13.30;99.90
33994;DHT22;20673;48.980;8.138;2022-09-16T05:06:24;13.20;99.90
33994;DHT22;20673;48.980;8.138;2022-09-16T05:08:52;13.10;99.90
33994;DHT22;20673;48.980;8.138;2022-09-16T05:11:23;13.10;99.90
33994;DHT22;20673;48.980;8.138;2022-09-16T05:13:50;13.10;99.90
33994;DHT22;20673;48.980;8.138;2022-09-16T05:16:19;13.10;99.90
33994;DHT22;20673;48.980;8.138;2022-09-16T05:18:50;13.10;99.90
33994;DHT22;20673;48.980;8.138;2022-09-16T05:21:20;13.10;99.90
33994;DHT22;20673;48.980;8.138;2022-09-16T05:23:47;13.00;99.90
33994;DHT22;20673;48.980;8.138;2022-09-16T05:26:17;13.00;99.90
33994;DHT22;20673;48.980;8.138;2022-09-16T05:28:45;13.00;99.90
33994;DHT22;20673;48.980;8.138;2022-09-16T05:31:21;13.10;99.90
33994;DHT22;20673;48.980;8.138;2022-09-16T05:34:01;13.10;99.90
33994;DHT22;20673;48.980;8.138;2022-09-16T05:36:34;13.10;99.90
33994;DHT22;20673;48.980;8.138;2022-09-16T05:39:02;13.10;99.90
33994;DHT22;20673;48.980;8.138;2022-09-16T05:41:28;13.10;99.90
33994;DHT22;20673;48.980;8.138;2022-09-16T05:43:57;13.10;99.90
33994;DHT22;20673;48.980;8.138;2022-09-16T05:46:25;13.10;99.90
33994;DHT22;20673;48.980;8.138;2022-09-16T05:48:52;13.00;99.90
33994;DHT22;20673;48.980;8.138;2022-09-16T05:51:21;13.10;99.90
33994;DHT22;20673;48.980;8.138;2022-09-16T05:53:50;13.10;99.90
33994;DHT22;20673;48.980;8.138;2022-09-16T05:56:20;13.00;99.90
33994;DHT22;20673;48.980;8.138;2022-09-16T05:58:55;13.00;99.90
33994;DHT22;20673;48.980;8.138;2022-09-16T06:01:22;13.00;99.90
33994;DHT22;20673;48.980;8.138;2022-09-16T06:03:52;13.00;99.90
33994;DHT22;20673;48.980;8.138;2022-09-16T06:06:25;13.00;99.90
33994;DHT22;20673;48.980;8.138;2022-09-16T06:08:58;13.00;99.90
33994;DHT22;20673;48.980;8.138;2022-09-16T06:11:27;13.10;99.90
33994;DHT22;20673;48.980;8.138;2022-09-16T06:13:55;13.10;99.90
33994;DHT22;20673;48.980;8.138;2022-09-16T06:16:26;13.10;99.90
33994;DHT22;20673;48.980;8.138;2022-09-16T06:18:54;13.20;99.90
33994;DHT22;20673;48.980;8.138;2022-09-16T06:21:22;13.20;99.90
33994;DHT22;20673;48.980;8.138;2022-09-16T06:23:48;13.20;99.90
33994;DHT22;20673;48.980;8.138;2022-09-16T06:26:17;13.20;99.90
33994;DHT22;20673;48.980;8.138;2022-09-16T06:28:48;13.30;99.90
33994;DHT22;20673;48.980;8.138;2022-09-16T06:31:22;13.30;99.90
33994;DHT22;20673;48.980;8.138;2022-09-16T06:33:51;13.30;99.90
33994;DHT22;20673;48.980;8.138;2022-09-16T06:36:21;13.40;99.90
33994;DHT22;20673;48.980;8.138;2022-09-16T06:38:48;13.50;99.90
33994;DHT22;20673;48.980;8.138;2022-09-16T06:41:18;13.40;99.90
33994;DHT22;20673;48.980;8.138;2022-09-16T06:43:46;13.50;99.90
33994;DHT22;20673;48.980;8.138;2022-09-16T06:46:18;13.60;99.90
33994;DHT22;20673;48.980;8.138;2022-09-16T06:48:47;13.60;99.90
33994;DHT22;20673;48.980;8.138;2022-09-16T06:51:18;13.60;99.90
33994;DHT22;20673;48.980;8.138;2022-09-16T06:53:48;13.60;99.90
33994;DHT22;20673;48.980;8.138;2022-09-16T06:56:16;13.70;99.90
33994;DHT22;20673;48.980;8.138;2022-09-16T06:58:48;13.70;99.90
33994;DHT22;20673;48.980;8.138;2022-09-16T07:01:21;13.70;99.90
33994;DHT22;20673;48.980;8.138;2022-09-16T07:03:50;13.70;99.90
33994;DHT22;20673;48.980;8.138;2022-09-16T07:06:19;13.80;99.90
33994;DHT22;20673;48.980;8.138;2022-09-16T07:08:47;13.90;99.90
33994;DHT22;20673;48.980;8.138;2022-09-16T07:11:16;13.90;99.90
33994;DHT22;20673;48.980;8.138;2022-09-16T07:13:46;14.00;99.90
33994;DHT22;20673;48.980;8.138;2022-09-16T07:16:16;14.00;99.90
33994;DHT22;20673;48.980;8.138;2022-09-16T07:18:44;14.10;99.90
33994;DHT22;20673;48.980;8.138;2022-09-16T07:21:16;14.10;99.90
33994;DHT22;20673;48.980;8.138;2022-09-16T07:23:44;14.30;99.90
33994;DHT22;20673;48.980;8.138;2022-09-16T07:26:18;14.40;99.90
33994;DHT22;20673;48.980;8.138;2022-09-16T07:28:46;14.50;99.90
33994;DHT22;20673;48.980;8.138;2022-09-16T07:31:22;14.60;99.90
33994;DHT22;20673;48.980;8.138;2022-09-16T07:33:52;14.70;99.90
33994;DHT22;20673;48.980;8.138;2022-09-16T07:36:23;14.80;99.90
33994;DHT22;20673;48.980;8.138;2022-09-16T07:38:51;15.00;99.90
33994;DHT22;20673;48.980;8.138;2022-09-16T07:41:22;15.10;99.90
33994;DHT22;20673;48.980;8.138;2022-09-16T07:43:51;15.20;99.90
33994;DHT22;20673;48.980;8.138;2022-09-16T07:46:19;15.20;99.90
33994;DHT22;20673;48.980;8.138;2022-09-16T07:48:47;15.20;99.90
33994;DHT22;20673;48.980;8.138;2022-09-16T07:51:16;15.20;99.90
33994;DHT22;20673;48.980;8.138;2022-09-16T07:53:44;15.10;99.90
33994;DHT22;20673;48.980;8.138;2022-09-16T07:56:15;15.20;99.90
33994;DHT22;20673;48.980;8.138;2022-09-16T07:58:44;15.00;99.90
33994;DHT22;20673;48.980;8.138;2022-09-16T08:01:12;15.00;99.90
33994;DHT22;20673;48.980;8.138;2022-09-16T08:03:40;15.00;99.90
33994;DHT22;20673;48.980;8.138;2022-09-16T08:06:19;15.10;99.90
33994;DHT22;20673;48.980;8.138;2022-09-16T08:08:42;15.00;99.90
33994;DHT22;20673;48.980;8.138;2022-09-16T08:11:09;15.00;99.90
33994;DHT22;20673;48.980;8.138;2022-09-16T08:13:37;14.90;99.90
33994;DHT22;20673;48.980;8.138;2022-09-16T08:16:06;14.90;99.90
33994;DHT22;20673;48.980;8.138;2022-09-16T08:18:35;14.80;99.90
33994;DHT22;20673;48.980;8.138;2022-09-16T08:21:05;14.90;99.90
33994;DHT22;20673;48.980;8.138;2022-09-16T08:23:35;14.90;99.90
33994;DHT22;20673;48.980;8.138;2022-09-16T08:26:03;15.00;99.90
33994;DHT22;20673;48.980;8.138;2022-09-16T08:28:31;15.00;99.90
33994;DHT22;20673;48.980;8.138;2022-09-16T08:30:58;15.10;99.90
33994;DHT22;20673;48.980;8.138;2022-09-16T08:33:25;15.20;99.90
33994;DHT22;20673;48.980;8.138;2022-09-16T08:36:01;15.20;99.90
33994;DHT22;20673;48.980;8.138;2022-09-16T08:38:35;15.20;99.90
33994;DHT22;20673;48.980;8.138;2022-09-16T08:41:14;15.10;99.90
33994;DHT22;20673;48.980;8.138;2022-09-16T08:44:05;15.20;99.90
33994;DHT22;20673;48.980;8.138;2022-09-16T08:46:50;15.30;99.90
33994;DHT22;20673;48.980;8.138;2022-09-16T08:49:40;15.40;99.90
33994;DHT22;20673;48.980;8.138;2022-09-16T08:54:55;15.50;99.90
33994;DHT22;20673;48.980;8.138;2022-09-16T08:57:26;15.50;99.90
33994;DHT22;20673;48.980;8.138;2022-09-16T08:59:58;15.50;99.90
33994;DHT22;20673;48.980;8.138;2022-09-16T09:05:27;15.50;99.90
33994;DHT22;20673;48.980;8.138;2022-09-16T09:11:28;15.50;99.90
33994;DHT22;20673;48.980;8.138;2022-09-16T09:17:21;15.70;99.90
33994;DHT22;20673;48.980;8.138;2022-09-16T09:20:31;15.60;99.90
33994;DHT22;20673;48.980;8.138;2022-09-16T09:26:02;15.50;99.90
33994;DHT22;20673;48.980;8.138;2022-09-16T09:31:42;15.60;99.90
33994;DHT22;20673;48.980;8.138;2022-09-16T09:46:12;15.20;99.90
33994;DHT22;20673;48.980;8.138;2022-09-16T09:48:56;15.30;99.90
33994;DHT22;20673;48.980;8.138;2022-09-16T09:51:32;15.20;99.90
33994;DHT22;20673;48.980;8.138;2022-09-16T09:54:08;15.30;99.90
33994;DHT22;20673;48.980;8.138;2022-09-16T09:56:44;15.40;99.90
33994;DHT22;20673;48.980;8.138;2022-09-16T09:59:29;15.50;99.90
33994;DHT22;20673;48.980;8.138;2022-09-16T10:01:59;15.50;99.90
33994;DHT22;20673;48.980;8.138;2022-09-16T10:04:35;15.60;99.90
33994;DHT22;20673;48.980;8.138;2022-09-16T10:06:58;15.70;99.90
33994;DHT22;20673;48.980;8.138;2022-09-16T10:09:25;15.90;99.90
33994;DHT22;20673;48.980;8.138;2022-09-16T10:11:53;16.00;99.90
33994;DHT22;20673;48.980;8.138;2022-09-16T10:14:32;16.20;99.90
33994;DHT22;20673;48.980;8.138;2022-09-16T10:17:01;16.50;99.90
33994;DHT22;20673;48.980;8.138;2022-09-16T10:19:47;16.80;99.90
33994;DHT22;20673;48.980;8.138;2022-09-16T10:22:23;17.00;99.90
33994;DHT22;20673;48.980;8.138;2022-09-16T10:24:57;17.00;99.90
33994;DHT22;20673;48.980;8.138;2022-09-16T10:27:32;17.20;99.90
33994;DHT22;20673;48.980;8.138;2022-09-16T10:30:12;17.40;99.90
33994;DHT22;20673;48.980;8.138;2022-09-16T10:35:30;17.30;99.90
33994;DHT22;20673;48.980;8.138;2022-09-16T10:38:06;17.20;99.90
33994;DHT22;20673;48.980;8.138;2022-09-16T10:40:35;17.20;99.90
33994;DHT22;20673;48.980;8.138;2022-09-16T10:43:05;17.30;99.90
33994;DHT22;20673;48.980;8.138;2022-09-16T10:45:36;17.40;99.90
33994;DHT22;20673;48.980;8.138;2022-09-16T10:48:10;17.60;99.90
33994;DHT22;20673;48.980;8.138;2022-09-16T10:50:37;17.60;99.90
33994;DHT22;20673;48.980;8.138;2022-09-16T10:56:00;17.70;99.90
33994;DHT22;20673;48.980;8.138;2022-09-16T10:58:28;17.70;99.90
33994;DHT22;20673;48.980;8.138;2022-09-16T11:09:43;17.80;99.90
33994;DHT22;20673;48.980;8.138;2022-09-16T11:18:40;18.30;99.90
33994;DHT22;20673;48.980;8.138;2022-09-16T11:21:45;18.40;99.90
33994;DHT22;20673;48.980;8.138;2022-09-16T11:30:16;19.50;99.90
33994;DHT22;20673;48.980;8.138;2022-09-16T11:35:57;19.50;99.90
33994;DHT22;20673;48.980;8.138;2022-09-16T11:41:38;20.50;99.90
33994;DHT22;20673;48.980;8.138;2022-09-16T11:50:06;20.80;99.90
33994;DHT22;20673;48.980;8.138;2022-09-16T11:55:53;21.20;99.90
33994;DHT22;20673;48.980;8.138;2022-09-16T11:58:45;21.20;99.90
33994;DHT22;20673;48.980;8.138;2022-09-16T12:06:56;20.30;99.90
33994;DHT22;20673;48.980;8.138;2022-09-16T12:12:21;20.00;99.90
33994;DHT22;20673;48.980;8.138;2022-09-16T12:18:01;19.00;99.90
33994;DHT22;20673;48.980;8.138;2022-09-16T12:20:32;18.80;99.90
33994;DHT22;20673;48.980;8.138;2022-09-16T12:23:08;18.50;99.90
33994;DHT22;20673;48.980;8.138;2022-09-16T12:28:50;18.20;99.90
33994;DHT22;20673;48.980;8.138;2022-09-16T12:31:39;18.10;99.90
33994;DHT22;20673;48.980;8.138;2022-09-16T12:34:17;18.00;99.90
33994;DHT22;20673;48.980;8.138;2022-09-16T12:37:02;18.10;99.90
33994;DHT22;20673;48.980;8.138;2022-09-16T12:39:26;18.20;99.90
33994;DHT22;20673;48.980;8.138;2022-09-16T12:45:38;18.40;99.90
33994;DHT22;20673;48.980;8.138;2022-09-16T12:52:08;18.70;99.90
33994;DHT22;20673;48.980;8.138;2022-09-16T12:55:06;18.60;99.90
33994;DHT22;20673;48.980;8.138;2022-09-16T13:00:22;18.70;99.90
33994;DHT22;20673;48.980;8.138;2022-09-16T13:02:54;19.10;99.90
33994;DHT22;20673;48.980;8.138;2022-09-16T13:05:31;19.10;99.90
33994;DHT22;20673;48.980;8.138;2022-09-16T13:08:02;19.00;99.90
33994;DHT22;20673;48.980;8.138;2022-09-16T13:10:39;19.00;99.90
33994;DHT22;20673;48.980;8.138;2022-09-16T13:13:06;18.90;99.90
33994;DHT22;20673;48.980;8.138;2022-09-16T13:15:37;18.70;99.90
33994;DHT22;20673;48.980;8.138;2022-09-16T13:20:51;18.60;99.90
33994;DHT22;20673;48.980;8.138;2022-09-16T13:23:22;18.50;99.90
33994;DHT22;20673;48.980;8.138;2022-09-16T13:28:41;18.50;99.90
33994;DHT22;20673;48.980;8.138;2022-09-16T13:31:15;19.10;99.90
33994;DHT22;20673;48.980;8.138;2022-09-16T13:36:32;18.80;99.90
33994;DHT22;20673;48.980;8.138;2022-09-16T13:39:04;18.60;99.90
33994;DHT22;20673;48.980;8.138;2022-09-16T13:41:44;18.60;99.90
33994;DHT22;20673;48.980;8.138;2022-09-16T13:49:50;19.40;99.90
33994;DHT22;20673;48.980;8.138;2022-09-16T13:52:30;19.20;99.90
33994;DHT22;20673;48.980;8.138;2022-09-16T13:55:02;19.00;99.90
33994;DHT22;20673;48.980;8.138;2022-09-16T14:00:33;19.30;99.90
33994;DHT22;20673;48.980;8.138;2022-09-16T14:03:35;19.40;99.90
33994;DHT22;20673;48.980;8.138;2022-09-16T14:06:27;19.60;99.90
33994;DHT22;20673;48.980;8.138;2022-09-16T14:15:04;20.30;99.90
33994;DHT22;20673;48.980;8.138;2022-09-16T14:17:40;20.60;99.90
33994;DHT22;20673;48.980;8.138;2022-09-16T14:20:21;20.80;99.90
33994;DHT22;20673;48.980;8.138;2022-09-16T14:22:46;20.80;99.90
33994;DHT22;20673;48.980;8.138;2022-09-16T14:25:31;21.00;99.90
33994;DHT22;20673;48.980;8.138;2022-09-16T14:28:07;21.10;99.90
33994;DHT22;20673;48.980;8.138;2022-09-16T14:30:35;21.10;99.90
33994;DHT22;20673;48.980;8.138;2022-09-16T14:33:01;21.60;99.90
33994;DHT22;20673;48.980;8.138;2022-09-16T14:35:28;21.40;99.90
33994;DHT22;20673;48.980;8.138;2022-09-16T14:37:58;21.30;99.90
33994;DHT22;20673;48.980;8.138;2022-09-16T14:40:27;20.70;99.90
33994;DHT22;20673;48.980;8.138;2022-09-16T14:42:57;20.50;99.90
33994;DHT22;20673;48.980;8.138;2022-09-16T14:45:29;20.60;99.90
33994;DHT22;20673;48.980;8.138;2022-09-16T14:47:58;20.90;99.90
33994;DHT22;20673;48.980;8.138;2022-09-16T14:50:30;21.10;99.90
33994;DHT22;20673;48.980;8.138;2022-09-16T14:53:02;21.50;99.90
33994;DHT22;20673;48.980;8.138;2022-09-16T14:55:33;21.90;99.90
33994;DHT22;20673;48.980;8.138;2022-09-16T14:58:02;21.60;99.90
33994;DHT22;20673;48.980;8.138;2022-09-16T15:00:50;21.70;99.90
33994;DHT22;20673;48.980;8.138;2022-09-16T15:03:52;22.00;99.90
33994;DHT22;20673;48.980;8.138;2022-09-16T15:06:27;21.30;99.90
33994;DHT22;20673;48.980;8.138;2022-09-16T15:08:58;20.60;99.90
33994;DHT22;20673;48.980;8.138;2022-09-16T15:11:35;20.40;99.90
33994;DHT22;20673;48.980;8.138;2022-09-16T15:14:07;20.30;99.90
33994;DHT22;20673;48.980;8.138;2022-09-16T15:16:38;20.30;99.90
33994;DHT22;20673;48.980;8.138;2022-09-16T15:19:15;20.10;99.90
33994;DHT22;20673;48.980;8.138;2022-09-16T15:21:46;19.60;99.90
33994;DHT22;20673;48.980;8.138;2022-09-16T15:24:19;19.30;99.90
33994;DHT22;20673;48.980;8.138;2022-09-16T15:26:49;18.90;99.90
33994;DHT22;20673;48.980;8.138;2022-09-16T15:32:18;18.50;99.90
33994;DHT22;20673;48.980;8.138;2022-09-16T15:34:47;18.20;99.90
33994;DHT22;20673;48.980;8.138;2022-09-16T15:37:31;18.10;99.90
33994;DHT22;20673;48.980;8.138;2022-09-16T15:43:17;17.90;99.90
33994;DHT22;20673;48.980;8.138;2022-09-16T15:45:57;17.70;99.90
33994;DHT22;20673;48.980;8.138;2022-09-16T15:48:32;17.70;99.90
33994;DHT22;20673;48.980;8.138;2022-09-16T15:54:23;17.50;99.90
33994;DHT22;20673;48.980;8.138;2022-09-16T15:57:01;17.40;99.90
33994;DHT22;20673;48.980;8.138;2022-09-16T16:07:53;16.90;99.90
33994;DHT22;20673;48.980;8.138;2022-09-16T16:10:26;16.80;99.90
33994;DHT22;20673;48.980;8.138;2022-09-16T16:12:59;16.80;99.90
33994;DHT22;20673;48.980;8.138;2022-09-16T16:15:32;16.70;99.90
33994;DHT22;20673;48.980;8.138;2022-09-16T16:18:02;16.60;99.90
33994;DHT22;20673;48.980;8.138;2022-09-16T16:20:31;16.60;99.90
33994;DHT22;20673;48.980;8.138;2022-09-16T16:22:59;16.60;99.90
33994;DHT22;20673;48.980;8.138;2022-09-16T16:25:27;16.50;99.90
33994;DHT22;20673;48.980;8.138;2022-09-16T16:27:53;16.60;99.90
33994;DHT22;20673;48.980;8.138;2022-09-16T16:30:19;16.60;99.90
33994;DHT22;20673;48.980;8.138;2022-09-16T16:32:45;16.50;99.90
33994;DHT22;20673;48.980;8.138;2022-09-16T16:35:11;16.50;99.90
33994;DHT22;20673;48.980;8.138;2022-09-16T16:37:38;16.40;99.90
33994;DHT22;20673;48.980;8.138;2022-09-16T16:40:06;16.40;99.90
33994;DHT22;20673;48.980;8.138;2022-09-16T16:42:33;16.40;99.90
33994;DHT22;20673;48.980;8.138;2022-09-16T16:45:00;16.30;99.90
33994;DHT22;20673;48.980;8.138;2022-09-16T16:47:26;16.40;99.90
33994;DHT22;20673;48.980;8.138;2022-09-16T16:49:52;16.30;99.90
33994;DHT22;20673;48.980;8.138;2022-09-16T16:52:18;16.30;99.90
33994;DHT22;20673;48.980;8.138;2022-09-16T16:54:45;16.20;99.90
33994;DHT22;20673;48.980;8.138;2022-09-16T16:57:11;16.10;99.90
33994;DHT22;20673;48.980;8.138;2022-09-16T16:59:37;16.10;99.90
33994;DHT22;20673;48.980;8.138;2022-09-16T17:02:03;16.00;99.90
33994;DHT22;20673;48.980;8.138;2022-09-16T17:04:29;15.90;99.90
33994;DHT22;20673;48.980;8.138;2022-09-16T17:06:56;16.00;99.90
33994;DHT22;20673;48.980;8.138;2022-09-16T17:09:22;15.90;99.90
33994;DHT22;20673;48.980;8.138;2022-09-16T17:11:54;15.80;99.90
33994;DHT22;20673;48.980;8.138;2022-09-16T17:14:23;15.40;99.90
33994;DHT22;20673;48.980;8.138;2022-09-16T17:16:51;15.00;99.90
33994;DHT22;20673;48.980;8.138;2022-09-16T17:19:20;14.80;99.90
33994;DHT22;20673;48.980;8.138;2022-09-16T17:21:49;14.70;99.90
33994;DHT22;20673;48.980;8.138;2022-09-16T17:24:16;14.60;99.90
33994;DHT22;20673;48.980;8.138;2022-09-16T17:26:44;14.40;99.90
33994;DHT22;20673;48.980;8.138;2022-09-16T17:29:10;14.30;99.90
33994;DHT22;20673;48.980;8.138;2022-09-16T17:31:37;14.30;99.90
33994;DHT22;20673;48.980;8.138;2022-09-16T17:34:07;14.10;99.90
33994;DHT22;20673;48.980;8.138;2022-09-16T17:36:36;14.00;99.90
33994;DHT22;20673;48.980;8.138;2022-09-16T17:39:15;14.00;99.90
33994;DHT22;20673;48.980;8.138;2022-09-16T17:41:43;13.80;99.90
33994;DHT22;20673;48.980;8.138;2022-09-16T17:44:12;13.80;99.90
33994;DHT22;20673;48.980;8.138;2022-09-16T17:46:40;13.80;99.90
33994;DHT22;20673;48.980;8.138;2022-09-16T17:49:12;13.80;99.90
33994;DHT22;20673;48.980;8.138;2022-09-16T17:51:39;13.70;99.90
33994;DHT22;20673;48.980;8.138;2022-09-16T17:54:05;13.70;99.90
33994;DHT22;20673;48.980;8.138;2022-09-16T17:56:33;13.60;99.90
33994;DHT22;20673;48.980;8.138;2022-09-16T17:59:00;13.60;99.90
33994;DHT22;20673;48.980;8.138;2022-09-16T18:01:26;13.50;99.90
33994;DHT22;20673;48.980;8.138;2022-09-16T18:03:53;13.50;99.90
33994;DHT22;20673;48.980;8.138;2022-09-16T18:08:53;13.40;99.90
33994;DHT22;20673;48.980;8.138;2022-09-16T18:11:20;13.30;99.90
33994;DHT22;20673;48.980;8.138;2022-09-16T18:13:47;13.30;99.90
33994;DHT22;20673;48.980;8.138;2022-09-16T18:16:20;13.20;99.90
33994;DHT22;20673;48.980;8.138;2022-09-16T18:18:52;13.10;99.90
33994;DHT22;20673;48.980;8.138;2022-09-16T18:21:21;13.10;99.90
33994;DHT22;20673;48.980;8.138;2022-09-16T18:23:58;13.00;99.90
33994;DHT22;20673;48.980;8.138;2022-09-16T18:26:22;13.00;99.90
33994;DHT22;20673;48.980;8.138;2022-09-16T18:28:52;12.90;99.90
33994;DHT22;20673;48.980;8.138;2022-09-16T18:31:20;12.80;99.90
33994;DHT22;20673;48.980;8.138;2022-09-16T18:33:52;12.80;99.90
33994;DHT22;20673;48.980;8.138;2022-09-16T18:36:20;12.80;99.90
33994;DHT22;20673;48.980;8.138;2022-09-16T18:38:53;12.70;99.90
33994;DHT22;20673;48.980;8.138;2022-09-16T18:41:24;12.70;99.90
33994;DHT22;20673;48.980;8.138;2022-09-16T18:43:59;12.60;99.90
33994;DHT22;20673;48.980;8.138;2022-09-16T18:46:27;12.50;99.90
33994;DHT22;20673;48.980;8.138;2022-09-16T18:48:56;12.40;99.90
33994;DHT22;20673;48.980;8.138;2022-09-16T18:51:29;12.30;99.90
33994;DHT22;20673;48.980;8.138;2022-09-16T18:53:58;12.20;99.90
33994;DHT22;20673;48.980;8.138;2022-09-16T18:56:31;12.20;99.90
33994;DHT22;20673;48.980;8.138;2022-09-16T18:59:03;12.20;99.90
33994;DHT22;20673;48.980;8.138;2022-09-16T19:01:33;12.20;99.90